Alexander, New York
Current Conditions -  °F | °C
As of 7:54 AM on Monday 24 Nov 2014 (Local Time) from KBUF Reporting Station
Broken Clouds Broken Clouds  
Wind Chill: 58°   Ceiling: 5000
Heat Index: 58°   Visibility: 10mi
Dew Point: 49°   Wind: 23mph
Humidity: 72%   Direction: 200°SSW
Pressure: 29.3"   Gusts: NA
Location:  42.9°N, 78.26°W
Report Text: KBUF 241254Z 20020KT 10SM FEW037 BKN050 BKN070 14/09 A2930 RMK AO2 PK WND 20030/1222 SLP922 SHRA DSNT NW T01440094
Loading
Personal Weather Stations






























Interactive Weather Map New forecast layout! Learn more

10-Day Weather Forecast

Advertisements
Track Severe Weather on mobile